sensor_id;sensor_type;location;lat;lon;timestamp;temperature;humidity
52415;DHT22;38340;52.964;6.086;2023-06-10T00:00:43;17.00;1.00
52415;DHT22;38340;52.964;6.086;2023-06-10T00:03:10;17.00;1.00
52415;DHT22;38340;52.964;6.086;2023-06-10T00:05:35;17.00;1.00
52415;DHT22;38340;52.964;6.086;2023-06-10T00:08:04;16.90;1.00
52415;DHT22;38340;52.964;6.086;2023-06-10T00:10:37;16.90;1.00
52415;DHT22;38340;52.964;6.086;2023-06-10T00:13:04;16.90;1.00
52415;DHT22;38340;52.964;6.086;2023-06-10T00:15:30;16.90;1.00
52415;DHT22;38340;52.964;6.086;2023-06-10T00:17:56;16.90;1.00
52415;DHT22;38340;52.964;6.086;2023-06-10T00:20:23;16.80;1.00
52415;DHT22;38340;52.964;6.086;2023-06-10T00:22:51;16.80;1.00
52415;DHT22;38340;52.964;6.086;2023-06-10T00:25:18;16.80;1.00
52415;DHT22;38340;52.964;6.086;2023-06-10T00:27:44;16.80;1.00
52415;DHT22;38340;52.964;6.086;2023-06-10T00:30:10;16.70;1.00
52415;DHT22;38340;52.964;6.086;2023-06-10T00:32:36;16.70;1.00
52415;DHT22;38340;52.964;6.086;2023-06-10T00:35:05;16.60;1.00
52415;DHT22;38340;52.964;6.086;2023-06-10T00:37:32;16.60;1.00
52415;DHT22;38340;52.964;6.086;2023-06-10T00:40:00;16.60;1.00
52415;DHT22;38340;52.964;6.086;2023-06-10T00:42:26;16.50;1.00
52415;DHT22;38340;52.964;6.086;2023-06-10T00:44:51;16.60;1.00
52415;DHT22;38340;52.964;6.086;2023-06-10T00:47:17;16.50;1.00
52415;DHT22;38340;52.964;6.086;2023-06-10T00:49:44;16.50;1.00
52415;DHT22;38340;52.964;6.086;2023-06-10T00:52:11;16.50;1.00
52415;DHT22;38340;52.964;6.086;2023-06-10T00:54:37;16.40;1.00
52415;DHT22;38340;52.964;6.086;2023-06-10T00:57:04;16.40;1.00
52415;DHT22;38340;52.964;6.086;2023-06-10T00:59:31;16.40;1.00
52415;DHT22;38340;52.964;6.086;2023-06-10T01:01:57;16.30;1.00
52415;DHT22;38340;52.964;6.086;2023-06-10T01:04:23;16.30;1.00
52415;DHT22;38340;52.964;6.086;2023-06-10T01:09:52;16.30;1.00
52415;DHT22;38340;52.964;6.086;2023-06-10T01:12:43;16.20;1.00
52415;DHT22;38340;52.964;6.086;2023-06-10T01:15:14;16.20;1.00
52415;DHT22;38340;52.964;6.086;2023-06-10T01:17:58;16.20;1.00
52415;DHT22;38340;52.964;6.086;2023-06-10T01:20:29;16.20;1.00
52415;DHT22;38340;52.964;6.086;2023-06-10T01:23:00;16.20;1.00
52415;DHT22;38340;52.964;6.086;2023-06-10T01:25:27;16.10;1.00
52415;DHT22;38340;52.964;6.086;2023-06-10T01:28:24;16.10;1.00
52415;DHT22;38340;52.964;6.086;2023-06-10T01:31:42;16.10;1.00
52415;DHT22;38340;52.964;6.086;2023-06-10T01:33:53;16.00;1.00
52415;DHT22;38340;52.964;6.086;2023-06-10T01:36:20;16.00;1.00
52415;DHT22;38340;52.964;6.086;2023-06-10T01:38:48;16.00;1.00
52415;DHT22;38340;52.964;6.086;2023-06-10T01:41:18;15.90;1.00
52415;DHT22;38340;52.964;6.086;2023-06-10T01:43:45;15.90;1.00
52415;DHT22;38340;52.964;6.086;2023-06-10T01:46:11;15.90;1.00
52415;DHT22;38340;52.964;6.086;2023-06-10T01:48:37;15.90;1.00
52415;DHT22;38340;52.964;6.086;2023-06-10T01:51:04;15.80;1.00
52415;DHT22;38340;52.964;6.086;2023-06-10T01:53:30;15.80;1.00
52415;DHT22;38340;52.964;6.086;2023-06-10T01:55:55;15.80;1.00
52415;DHT22;38340;52.964;6.086;2023-06-10T01:58:21;15.70;1.00
52415;DHT22;38340;52.964;6.086;2023-06-10T02:00:47;15.80;1.00
52415;DHT22;38340;52.964;6.086;2023-06-10T02:03:13;15.70;1.00
52415;DHT22;38340;52.964;6.086;2023-06-10T02:05:39;15.70;1.00
52415;DHT22;38340;52.964;6.086;2023-06-10T02:08:05;15.70;1.00
52415;DHT22;38340;52.964;6.086;2023-06-10T02:10:30;15.70;1.00
52415;DHT22;38340;52.964;6.086;2023-06-10T02:12:56;15.60;1.00
52415;DHT22;38340;52.964;6.086;2023-06-10T02:15:22;15.60;1.00
52415;DHT22;38340;52.964;6.086;2023-06-10T02:17:48;15.60;1.00
52415;DHT22;38340;52.964;6.086;2023-06-10T02:20:14;15.50;1.00
52415;DHT22;38340;52.964;6.086;2023-06-10T02:22:40;15.50;1.00
52415;DHT22;38340;52.964;6.086;2023-06-10T02:25:06;15.50;1.00
52415;DHT22;38340;52.964;6.086;2023-06-10T02:27:32;15.50;1.00
52415;DHT22;38340;52.964;6.086;2023-06-10T02:29:58;15.40;1.00
52415;DHT22;38340;52.964;6.086;2023-06-10T02:32:24;15.40;1.00
52415;DHT22;38340;52.964;6.086;2023-06-10T02:34:51;15.40;1.00
52415;DHT22;38340;52.964;6.086;2023-06-10T02:37:17;15.30;1.00
52415;DHT22;38340;52.964;6.086;2023-06-10T02:39:42;15.30;1.00
52415;DHT22;38340;52.964;6.086;2023-06-10T02:42:08;15.20;1.00
52415;DHT22;38340;52.964;6.086;2023-06-10T02:44:34;15.20;1.00
52415;DHT22;38340;52.964;6.086;2023-06-10T02:46:59;15.20;1.00
52415;DHT22;38340;52.964;6.086;2023-06-10T02:49:25;15.10;1.00
52415;DHT22;38340;52.964;6.086;2023-06-10T02:51:54;15.10;1.00
52415;DHT22;38340;52.964;6.086;2023-06-10T02:54:25;15.10;1.00
52415;DHT22;38340;52.964;6.086;2023-06-10T02:56:51;15.00;1.00
52415;DHT22;38340;52.964;6.086;2023-06-10T02:59:17;15.00;1.00
52415;DHT22;38340;52.964;6.086;2023-06-10T03:01:43;15.00;5.80
52415;DHT22;38340;52.964;6.086;2023-06-10T03:04:09;14.90;8.80
52415;DHT22;38340;52.964;6.086;2023-06-10T03:06:35;14.90;1.00
52415;DHT22;38340;52.964;6.086;2023-06-10T03:09:02;14.80;22.20
52415;DHT22;38340;52.964;6.086;2023-06-10T03:11:31;14.80;23.30
52415;DHT22;38340;52.964;6.086;2023-06-10T03:13:57;14.80;47.00
52415;DHT22;38340;52.964;6.086;2023-06-10T03:16:23;14.80;44.70
52415;DHT22;38340;52.964;6.086;2023-06-10T03:18:50;14.70;86.10
52415;DHT22;38340;52.964;6.086;2023-06-10T03:21:16;14.70;88.60
52415;DHT22;38340;52.964;6.086;2023-06-10T03:23:42;14.70;99.90
52415;DHT22;38340;52.964;6.086;2023-06-10T03:26:08;14.70;99.90
52415;DHT22;38340;52.964;6.086;2023-06-10T03:28:35;14.60;99.90
52415;DHT22;38340;52.964;6.086;2023-06-10T03:31:01;14.60;99.90
52415;DHT22;38340;52.964;6.086;2023-06-10T03:33:26;14.60;99.90
52415;DHT22;38340;52.964;6.086;2023-06-10T03:35:52;14.60;99.90
52415;DHT22;38340;52.964;6.086;2023-06-10T03:38:18;14.60;99.90
52415;DHT22;38340;52.964;6.086;2023-06-10T03:40:44;14.60;99.90
52415;DHT22;38340;52.964;6.086;2023-06-10T03:43:09;14.60;99.90
52415;DHT22;38340;52.964;6.086;2023-06-10T03:45:35;14.60;99.90
52415;DHT22;38340;52.964;6.086;2023-06-10T03:48:02;14.60;99.90
52415;DHT22;38340;52.964;6.086;2023-06-10T03:50:29;14.60;99.90
52415;DHT22;38340;52.964;6.086;2023-06-10T03:52:54;14.50;99.90
52415;DHT22;38340;52.964;6.086;2023-06-10T03:55:20;14.60;99.90
52415;DHT22;38340;52.964;6.086;2023-06-10T03:57:47;14.60;99.90
52415;DHT22;38340;52.964;6.086;2023-06-10T04:00:16;15.00;99.90
52415;DHT22;38340;52.964;6.086;2023-06-10T04:02:43;15.60;99.90
52415;DHT22;38340;52.964;6.086;2023-06-10T04:05:13;16.20;99.90
52415;DHT22;38340;52.964;6.086;2023-06-10T04:07:39;16.60;99.90
52415;DHT22;38340;52.964;6.086;2023-06-10T04:10:08;17.00;1.00
52415;DHT22;38340;52.964;6.086;2023-06-10T04:12:35;17.40;1.00
52415;DHT22;38340;52.964;6.086;2023-06-10T04:15:02;17.60;99.90
52415;DHT22;38340;52.964;6.086;2023-06-10T04:17:28;17.90;99.90
52415;DHT22;38340;52.964;6.086;2023-06-10T04:19:54;18.10;99.90
52415;DHT22;38340;52.964;6.086;2023-06-10T04:22:20;18.40;99.90
52415;DHT22;38340;52.964;6.086;2023-06-10T04:24:46;18.70;23.10
52415;DHT22;38340;52.964;6.086;2023-06-10T04:27:12;18.90;1.00
52415;DHT22;38340;52.964;6.086;2023-06-10T04:29:37;19.20;99.90
52415;DHT22;38340;52.964;6.086;2023-06-10T04:32:03;19.40;99.90
52415;DHT22;38340;52.964;6.086;2023-06-10T04:34:31;19.70;99.90
52415;DHT22;38340;52.964;6.086;2023-06-10T04:36:57;20.00;99.90
52415;DHT22;38340;52.964;6.086;2023-06-10T04:39:22;20.10;99.90
52415;DHT22;38340;52.964;6.086;2023-06-10T04:41:48;20.30;99.70
52415;DHT22;38340;52.964;6.086;2023-06-10T04:44:14;20.50;1.00
52415;DHT22;38340;52.964;6.086;2023-06-10T04:46:39;20.60;1.00
52415;DHT22;38340;52.964;6.086;2023-06-10T04:49:05;20.70;1.00
52415;DHT22;38340;52.964;6.086;2023-06-10T04:51:31;20.80;1.00
52415;DHT22;38340;52.964;6.086;2023-06-10T04:53:58;20.90;1.00
52415;DHT22;38340;52.964;6.086;2023-06-10T04:56:25;20.90;1.00
52415;DHT22;38340;52.964;6.086;2023-06-10T04:58:50;21.10;99.90
52415;DHT22;38340;52.964;6.086;2023-06-10T05:01:16;21.20;99.90
52415;DHT22;38340;52.964;6.086;2023-06-10T05:03:42;21.40;99.90
52415;DHT22;38340;52.964;6.086;2023-06-10T05:06:07;21.40;99.90
52415;DHT22;38340;52.964;6.086;2023-06-10T05:08:33;21.50;99.90
52415;DHT22;38340;52.964;6.086;2023-06-10T05:10:59;21.70;99.90
52415;DHT22;38340;52.964;6.086;2023-06-10T05:13:25;21.80;99.90
52415;DHT22;38340;52.964;6.086;2023-06-10T05:15:50;21.90;99.90
52415;DHT22;38340;52.964;6.086;2023-06-10T05:18:16;22.00;99.90
52415;DHT22;38340;52.964;6.086;2023-06-10T05:20:42;22.00;99.90
52415;DHT22;38340;52.964;6.086;2023-06-10T05:23:07;22.30;99.90
52415;DHT22;38340;52.964;6.086;2023-06-10T05:25:33;22.40;99.90
52415;DHT22;38340;52.964;6.086;2023-06-10T05:27:59;22.30;99.90
52415;DHT22;38340;52.964;6.086;2023-06-10T05:30:25;22.20;99.90
52415;DHT22;38340;52.964;6.086;2023-06-10T05:32:52;22.30;99.90
52415;DHT22;38340;52.964;6.086;2023-06-10T05:35:18;22.40;99.90
52415;DHT22;38340;52.964;6.086;2023-06-10T05:37:44;22.30;99.90
52415;DHT22;38340;52.964;6.086;2023-06-10T05:40:10;22.40;99.90
52415;DHT22;38340;52.964;6.086;2023-06-10T05:42:36;22.40;99.90
52415;DHT22;38340;52.964;6.086;2023-06-10T05:45:02;22.30;99.90
52415;DHT22;38340;52.964;6.086;2023-06-10T05:47:28;22.00;99.90
52415;DHT22;38340;52.964;6.086;2023-06-10T05:49:54;21.60;99.90
52415;DHT22;38340;52.964;6.086;2023-06-10T05:52:20;21.20;1.00
52415;DHT22;38340;52.964;6.086;2023-06-10T05:54:46;21.00;1.00
52415;DHT22;38340;52.964;6.086;2023-06-10T05:57:11;20.90;68.50
52415;DHT22;38340;52.964;6.086;2023-06-10T05:59:37;20.80;99.90
52415;DHT22;38340;52.964;6.086;2023-06-10T06:02:03;20.70;99.90
52415;DHT22;38340;52.964;6.086;2023-06-10T06:04:29;20.60;99.90
52415;DHT22;38340;52.964;6.086;2023-06-10T06:06:55;20.30;99.90
52415;DHT22;38340;52.964;6.086;2023-06-10T06:09:20;20.10;99.90
52415;DHT22;38340;52.964;6.086;2023-06-10T06:11:46;19.90;1.00
52415;DHT22;38340;52.964;6.086;2023-06-10T06:14:12;19.70;1.00
52415;DHT22;38340;52.964;6.086;2023-06-10T06:16:38;19.50;36.20
52415;DHT22;38340;52.964;6.086;2023-06-10T06:19:04;19.50;99.90
52415;DHT22;38340;52.964;6.086;2023-06-10T06:21:29;19.50;99.90
52415;DHT22;38340;52.964;6.086;2023-06-10T06:23:55;19.50;99.90
52415;DHT22;38340;52.964;6.086;2023-06-10T06:26:21;19.50;99.90
52415;DHT22;38340;52.964;6.086;2023-06-10T06:28:46;19.50;99.90
52415;DHT22;38340;52.964;6.086;2023-06-10T06:31:12;19.60;99.90
52415;DHT22;38340;52.964;6.086;2023-06-10T06:33:38;19.70;99.90
52415;DHT22;38340;52.964;6.086;2023-06-10T06:36:03;19.90;99.90
52415;DHT22;38340;52.964;6.086;2023-06-10T06:38:29;19.80;99.90
52415;DHT22;38340;52.964;6.086;2023-06-10T06:40:55;19.80;99.90
52415;DHT22;38340;52.964;6.086;2023-06-10T06:43:21;19.90;99.90
52415;DHT22;38340;52.964;6.086;2023-06-10T06:45:46;19.90;99.90
52415;DHT22;38340;52.964;6.086;2023-06-10T06:48:12;20.10;99.90
52415;DHT22;38340;52.964;6.086;2023-06-10T06:50:38;20.10;99.90
52415;DHT22;38340;52.964;6.086;2023-06-10T06:53:04;20.30;99.90
52415;DHT22;38340;52.964;6.086;2023-06-10T06:55:30;20.40;1.00
52415;DHT22;38340;52.964;6.086;2023-06-10T06:57:55;20.30;1.00
52415;DHT22;38340;52.964;6.086;2023-06-10T07:00:21;20.30;1.00
52415;DHT22;38340;52.964;6.086;2023-06-10T07:02:48;20.30;1.00
52415;DHT22;38340;52.964;6.086;2023-06-10T07:05:13;20.30;1.00
52415;DHT22;38340;52.964;6.086;2023-06-10T07:07:39;20.40;1.00
52415;DHT22;38340;52.964;6.086;2023-06-10T07:10:05;20.50;1.00
52415;DHT22;38340;52.964;6.086;2023-06-10T07:12:31;20.60;1.00
52415;DHT22;38340;52.964;6.086;2023-06-10T07:14:57;20.70;1.00
52415;DHT22;38340;52.964;6.086;2023-06-10T07:17:22;20.80;1.00
52415;DHT22;38340;52.964;6.086;2023-06-10T07:19:48;20.80;99.90
52415;DHT22;38340;52.964;6.086;2023-06-10T07:22:14;21.00;99.90
52415;DHT22;38340;52.964;6.086;2023-06-10T07:24:40;21.10;99.90
52415;DHT22;38340;52.964;6.086;2023-06-10T07:27:06;21.20;99.90
52415;DHT22;38340;52.964;6.086;2023-06-10T07:29:32;21.30;99.90
52415;DHT22;38340;52.964;6.086;2023-06-10T07:31:58;21.30;99.90
52415;DHT22;38340;52.964;6.086;2023-06-10T07:34:24;21.50;99.90
52415;DHT22;38340;52.964;6.086;2023-06-10T07:36:49;21.60;99.90
52415;DHT22;38340;52.964;6.086;2023-06-10T07:39:15;21.70;99.90
52415;DHT22;38340;52.964;6.086;2023-06-10T07:41:41;21.70;99.90
52415;DHT22;38340;52.964;6.086;2023-06-10T07:44:06;21.70;99.90
52415;DHT22;38340;52.964;6.086;2023-06-10T07:46:32;21.80;99.90
52415;DHT22;38340;52.964;6.086;2023-06-10T07:48:58;21.90;99.90
52415;DHT22;38340;52.964;6.086;2023-06-10T07:51:24;21.90;19.10
52415;DHT22;38340;52.964;6.086;2023-06-10T07:53:49;22.00;99.90
52415;DHT22;38340;52.964;6.086;2023-06-10T07:56:15;22.20;6.60
52415;DHT22;38340;52.964;6.086;2023-06-10T07:58:41;22.30;1.00
52415;DHT22;38340;52.964;6.086;2023-06-10T08:01:07;22.40;1.00
52415;DHT22;38340;52.964;6.086;2023-06-10T08:03:33;22.50;1.00
52415;DHT22;38340;52.964;6.086;2023-06-10T08:05:58;22.60;1.00
52415;DHT22;38340;52.964;6.086;2023-06-10T08:08:24;22.70;99.90
52415;DHT22;38340;52.964;6.086;2023-06-10T08:10:50;22.70;1.00
52415;DHT22;38340;52.964;6.086;2023-06-10T08:13:15;22.70;99.90
52415;DHT22;38340;52.964;6.086;2023-06-10T08:15:41;22.80;1.00
52415;DHT22;38340;52.964;6.086;2023-06-10T08:18:07;22.80;99.90
52415;DHT22;38340;52.964;6.086;2023-06-10T08:20:32;22.90;99.90
52415;DHT22;38340;52.964;6.086;2023-06-10T08:22:58;22.80;99.90
52415;DHT22;38340;52.964;6.086;2023-06-10T08:25:24;22.80;99.90
52415;DHT22;38340;52.964;6.086;2023-06-10T08:27:50;22.80;99.90
52415;DHT22;38340;52.964;6.086;2023-06-10T08:30:17;22.90;99.90
52415;DHT22;38340;52.964;6.086;2023-06-10T08:32:43;23.00;99.90
52415;DHT22;38340;52.964;6.086;2023-06-10T08:35:09;23.00;99.90
52415;DHT22;38340;52.964;6.086;2023-06-10T08:37:35;23.10;99.90
52415;DHT22;38340;52.964;6.086;2023-06-10T08:40:00;23.30;99.90
52415;DHT22;38340;52.964;6.086;2023-06-10T08:42:47;23.50;99.90
52415;DHT22;38340;52.964;6.086;2023-06-10T08:45:17;23.70;1.00
52415;DHT22;38340;52.964;6.086;2023-06-10T08:47:45;23.70;99.90
52415;DHT22;38340;52.964;6.086;2023-06-10T08:50:16;23.80;99.90
52415;DHT22;38340;52.964;6.086;2023-06-10T08:52:44;23.90;99.90
52415;DHT22;38340;52.964;6.086;2023-06-10T08:55:32;24.00;1.00
52415;DHT22;38340;52.964;6.086;2023-06-10T08:58:01;24.20;1.00
52415;DHT22;38340;52.964;6.086;2023-06-10T09:00:28;24.30;99.90
52415;DHT22;38340;52.964;6.086;2023-06-10T09:02:55;24.30;99.90
52415;DHT22;38340;52.964;6.086;2023-06-10T09:05:21;24.30;99.90
52415;DHT22;38340;52.964;6.086;2023-06-10T09:07:48;24.40;99.90
52415;DHT22;38340;52.964;6.086;2023-06-10T09:10:14;24.50;99.90
52415;DHT22;38340;52.964;6.086;2023-06-10T09:12:40;24.60;99.90
52415;DHT22;38340;52.964;6.086;2023-06-10T09:15:06;24.70;99.90
52415;DHT22;38340;52.964;6.086;2023-06-10T09:17:32;24.60;99.90
52415;DHT22;38340;52.964;6.086;2023-06-10T09:19:59;24.70;99.90
52415;DHT22;38340;52.964;6.086;2023-06-10T09:22:25;24.80;99.90
52415;DHT22;38340;52.964;6.086;2023-06-10T09:25:03;24.90;99.90
52415;DHT22;38340;52.964;6.086;2023-06-10T09:27:31;25.00;99.90
52415;DHT22;38340;52.964;6.086;2023-06-10T09:29:58;25.00;99.90
52415;DHT22;38340;52.964;6.086;2023-06-10T09:32:24;24.90;99.90
52415;DHT22;38340;52.964;6.086;2023-06-10T09:34:50;24.90;99.90
52415;DHT22;38340;52.964;6.086;2023-06-10T09:37:23;25.00;99.90
52415;DHT22;38340;52.964;6.086;2023-06-10T09:40:06;25.00;99.90
52415;DHT22;38340;52.964;6.086;2023-06-10T09:42:37;25.00;99.90
52415;DHT22;38340;52.964;6.086;2023-06-10T09:45:04;25.00;99.90
52415;DHT22;38340;52.964;6.086;2023-06-10T09:47:30;24.90;99.90
52415;DHT22;38340;52.964;6.086;2023-06-10T09:49:55;25.10;99.90
52415;DHT22;38340;52.964;6.086;2023-06-10T09:52:26;25.20;99.90
52415;DHT22;38340;52.964;6.086;2023-06-10T09:54:52;25.40;99.90
52415;DHT22;38340;52.964;6.086;2023-06-10T09:57:19;25.40;99.90
52415;DHT22;38340;52.964;6.086;2023-06-10T09:59:46;25.40;99.90
52415;DHT22;38340;52.964;6.086;2023-06-10T10:02:15;25.50;99.90
52415;DHT22;38340;52.964;6.086;2023-06-10T10:04:42;25.50;99.90
52415;DHT22;38340;52.964;6.086;2023-06-10T10:07:08;25.60;99.90
52415;DHT22;38340;52.964;6.086;2023-06-10T10:09:39;25.60;99.90
52415;DHT22;38340;52.964;6.086;2023-06-10T10:12:14;25.70;99.90
52415;DHT22;38340;52.964;6.086;2023-06-10T10:14:46;25.60;99.90
52415;DHT22;38340;52.964;6.086;2023-06-10T10:17:14;25.60;99.90
52415;DHT22;38340;52.964;6.086;2023-06-10T10:19:47;25.70;99.90
52415;DHT22;38340;52.964;6.086;2023-06-10T10:22:25;25.70;99.90
52415;DHT22;38340;52.964;6.086;2023-06-10T10:24:55;25.70;99.90
52415;DHT22;38340;52.964;6.086;2023-06-10T10:27:33;25.80;99.90
52415;DHT22;38340;52.964;6.086;2023-06-10T10:30:01;25.90;97.00
52415;DHT22;38340;52.964;6.086;2023-06-10T10:32:56;25.90;99.90
52415;DHT22;38340;52.964;6.086;2023-06-10T10:35:23;26.10;99.90
52415;DHT22;38340;52.964;6.086;2023-06-10T10:37:52;26.20;99.90
52415;DHT22;38340;52.964;6.086;2023-06-10T10:40:19;26.10;99.90
52415;DHT22;38340;52.964;6.086;2023-06-10T10:42:48;26.10;81.40
52415;DHT22;38340;52.964;6.086;2023-06-10T10:45:14;26.10;90.40
52415;DHT22;38340;52.964;6.086;2023-06-10T10:47:42;26.30;95.30
52415;DHT22;38340;52.964;6.086;2023-06-10T10:50:19;26.30;97.30
52415;DHT22;38340;52.964;6.086;2023-06-10T10:52:55;26.30;92.00
52415;DHT22;38340;52.964;6.086;2023-06-10T10:55:23;26.30;85.10
52415;DHT22;38340;52.964;6.086;2023-06-10T10:58:18;26.20;85.90
52415;DHT22;38340;52.964;6.086;2023-06-10T11:00:49;26.20;83.30
52415;DHT22;38340;52.964;6.086;2023-06-10T11:03:16;26.30;99.90
52415;DHT22;38340;52.964;6.086;2023-06-10T11:05:47;26.40;90.70
52415;DHT22;38340;52.964;6.086;2023-06-10T11:11:21;26.60;92.10
52415;DHT22;38340;52.964;6.086;2023-06-10T11:14:06;26.70;92.20
52415;DHT22;38340;52.964;6.086;2023-06-10T11:16:41;26.70;98.20
52415;DHT22;38340;52.964;6.086;2023-06-10T11:19:07;26.70;99.90
52415;DHT22;38340;52.964;6.086;2023-06-10T11:24:21;26.80;99.90
52415;DHT22;38340;52.964;6.086;2023-06-10T11:26:47;26.80;99.90
52415;DHT22;38340;52.964;6.086;2023-06-10T11:29:14;26.80;99.90
52415;DHT22;38340;52.964;6.086;2023-06-10T11:31:45;26.90;99.90
52415;DHT22;38340;52.964;6.086;2023-06-10T11:34:13;26.90;99.90
52415;DHT22;38340;52.964;6.086;2023-06-10T11:36:40;26.90;99.90
52415;DHT22;38340;52.964;6.086;2023-06-10T11:39:08;27.00;99.90
52415;DHT22;38340;52.964;6.086;2023-06-10T11:41:35;27.00;99.90
52415;DHT22;38340;52.964;6.086;2023-06-10T11:44:13;27.10;99.90
52415;DHT22;38340;52.964;6.086;2023-06-10T11:46:39;27.20;99.90
52415;DHT22;38340;52.964;6.086;2023-06-10T11:49:05;27.30;99.90
52415;DHT22;38340;52.964;6.086;2023-06-10T11:51:36;27.20;99.90
52415;DHT22;38340;52.964;6.086;2023-06-10T11:54:03;27.20;99.90
52415;DHT22;38340;52.964;6.086;2023-06-10T11:56:31;27.30;99.90
52415;DHT22;38340;52.964;6.086;2023-06-10T11:59:04;27.30;99.90
52415;DHT22;38340;52.964;6.086;2023-06-10T12:01:31;27.30;99.90
52415;DHT22;38340;52.964;6.086;2023-06-10T12:04:11;27.20;99.90
52415;DHT22;38340;52.964;6.086;2023-06-10T12:09:22;27.20;1.00
52415;DHT22;38340;52.964;6.086;2023-06-10T12:12:02;27.30;1.00
52415;DHT22;38340;52.964;6.086;2023-06-10T12:14:54;27.40;1.00
52415;DHT22;38340;52.964;6.086;2023-06-10T12:17:22;27.40;1.00
52415;DHT22;38340;52.964;6.086;2023-06-10T12:19:49;27.40;1.00
52415;DHT22;38340;52.964;6.086;2023-06-10T12:22:15;27.30;1.00
52415;DHT22;38340;52.964;6.086;2023-06-10T12:24:45;27.40;1.00
52415;DHT22;38340;52.964;6.086;2023-06-10T12:27:12;27.50;1.00
52415;DHT22;38340;52.964;6.086;2023-06-10T12:29:37;27.50;1.00
52415;DHT22;38340;52.964;6.086;2023-06-10T12:32:04;27.60;1.00
52415;DHT22;38340;52.964;6.086;2023-06-10T12:34:33;27.50;1.00
52415;DHT22;38340;52.964;6.086;2023-06-10T12:37:00;27.50;1.00
52415;DHT22;38340;52.964;6.086;2023-06-10T12:39:26;27.60;1.00
52415;DHT22;38340;52.964;6.086;2023-06-10T12:41:52;27.60;1.00
52415;DHT22;38340;52.964;6.086;2023-06-10T12:44:17;27.50;1.00
52415;DHT22;38340;52.964;6.086;2023-06-10T12:46:43;27.50;1.00
52415;DHT22;38340;52.964;6.086;2023-06-10T12:49:19;27.50;1.00
52415;DHT22;38340;52.964;6.086;2023-06-10T12:51:45;27.50;1.00
52415;DHT22;38340;52.964;6.086;2023-06-10T12:54:11;27.40;1.00
52415;DHT22;38340;52.964;6.086;2023-06-10T12:56:38;27.40;1.00
52415;DHT22;38340;52.964;6.086;2023-06-10T12:59:03;27.50;1.00
52415;DHT22;38340;52.964;6.086;2023-06-10T13:01:29;27.50;1.00
52415;DHT22;38340;52.964;6.086;2023-06-10T13:03:57;27.50;1.00
52415;DHT22;38340;52.964;6.086;2023-06-10T13:06:22;27.50;1.00
52415;DHT22;38340;52.964;6.086;2023-06-10T13:08:48;27.60;1.00
52415;DHT22;38340;52.964;6.086;2023-06-10T13:11:14;27.70;1.00
52415;DHT22;38340;52.964;6.086;2023-06-10T13:13:39;27.80;1.00
52415;DHT22;38340;52.964;6.086;2023-06-10T13:16:05;27.80;1.00
52415;DHT22;38340;52.964;6.086;2023-06-10T13:18:31;27.70;1.00
52415;DHT22;38340;52.964;6.086;2023-06-10T13:21:03;27.70;1.00
52415;DHT22;38340;52.964;6.086;2023-06-10T13:23:29;27.70;1.00
52415;DHT22;38340;52.964;6.086;2023-06-10T13:25:56;27.80;1.00
52415;DHT22;38340;52.964;6.086;2023-06-10T13:28:22;27.90;1.00
52415;DHT22;38340;52.964;6.086;2023-06-10T13:30:48;27.80;1.00
52415;DHT22;38340;52.964;6.086;2023-06-10T13:33:14;27.80;1.00
52415;DHT22;38340;52.964;6.086;2023-06-10T13:35:39;27.80;1.00
52415;DHT22;38340;52.964;6.086;2023-06-10T13:38:07;27.80;1.00
52415;DHT22;38340;52.964;6.086;2023-06-10T13:40:33;27.80;1.00
52415;DHT22;38340;52.964;6.086;2023-06-10T13:42:58;27.90;1.00
52415;DHT22;38340;52.964;6.086;2023-06-10T13:45:25;27.90;1.00
52415;DHT22;38340;52.964;6.086;2023-06-10T13:47:51;27.90;1.00
52415;DHT22;38340;52.964;6.086;2023-06-10T13:50:16;27.90;1.00
52415;DHT22;38340;52.964;6.086;2023-06-10T13:52:42;27.90;1.00
52415;DHT22;38340;52.964;6.086;2023-06-10T13:55:08;27.90;1.00
52415;DHT22;38340;52.964;6.086;2023-06-10T13:57:34;27.80;1.00
52415;DHT22;38340;52.964;6.086;2023-06-10T14:00:00;27.80;1.00
52415;DHT22;38340;52.964;6.086;2023-06-10T14:02:25;27.90;1.00
52415;DHT22;38340;52.964;6.086;2023-06-10T14:04:51;27.80;1.00
52415;DHT22;38340;52.964;6.086;2023-06-10T14:07:17;27.80;1.00
52415;DHT22;38340;52.964;6.086;2023-06-10T14:09:43;27.80;1.00
52415;DHT22;38340;52.964;6.086;2023-06-10T14:12:09;27.90;1.00
52415;DHT22;38340;52.964;6.086;2023-06-10T14:14:35;27.90;1.00
52415;DHT22;38340;52.964;6.086;2023-06-10T14:17:01;28.00;1.00
52415;DHT22;38340;52.964;6.086;2023-06-10T14:19:28;27.90;1.00
52415;DHT22;38340;52.964;6.086;2023-06-10T14:21:54;27.90;1.00
52415;DHT22;38340;52.964;6.086;2023-06-10T14:24:21;27.90;1.00
52415;DHT22;38340;52.964;6.086;2023-06-10T14:26:46;27.90;1.00
52415;DHT22;38340;52.964;6.086;2023-06-10T14:29:12;27.90;1.00
52415;DHT22;38340;52.964;6.086;2023-06-10T14:31:42;28.00;1.00
52415;DHT22;38340;52.964;6.086;2023-06-10T14:34:08;28.00;1.00
52415;DHT22;38340;52.964;6.086;2023-06-10T14:36:34;28.00;1.00
52415;DHT22;38340;52.964;6.086;2023-06-10T14:39:00;28.00;1.00
52415;DHT22;38340;52.964;6.086;2023-06-10T14:41:26;27.90;1.00
52415;DHT22;38340;52.964;6.086;2023-06-10T14:43:52;27.70;1.00
52415;DHT22;38340;52.964;6.086;2023-06-10T14:46:18;27.80;1.00
52415;DHT22;38340;52.964;6.086;2023-06-10T14:48:46;27.70;1.00
52415;DHT22;38340;52.964;6.086;2023-06-10T14:51:12;27.70;1.00
52415;DHT22;38340;52.964;6.086;2023-06-10T14:53:37;27.80;1.00
52415;DHT22;38340;52.964;6.086;2023-06-10T14:56:03;27.80;1.00
52415;DHT22;38340;52.964;6.086;2023-06-10T14:58:29;27.90;1.00
52415;DHT22;38340;52.964;6.086;2023-06-10T15:00:55;27.90;1.00
52415;DHT22;38340;52.964;6.086;2023-06-10T15:03:20;28.00;1.00
52415;DHT22;38340;52.964;6.086;2023-06-10T15:05:46;28.00;1.00
52415;DHT22;38340;52.964;6.086;2023-06-10T15:08:12;27.90;1.00
52415;DHT22;38340;52.964;6.086;2023-06-10T15:10:37;27.90;1.00
52415;DHT22;38340;52.964;6.086;2023-06-10T15:13:03;27.90;1.00
52415;DHT22;38340;52.964;6.086;2023-06-10T15:15:29;28.10;1.00
52415;DHT22;38340;52.964;6.086;2023-06-10T15:17:54;28.20;1.00
52415;DHT22;38340;52.964;6.086;2023-06-10T15:20:21;28.20;1.00
52415;DHT22;38340;52.964;6.086;2023-06-10T15:22:46;28.10;1.00
52415;DHT22;38340;52.964;6.086;2023-06-10T15:25:12;28.10;1.00
52415;DHT22;38340;52.964;6.086;2023-06-10T15:27:38;28.10;1.00
52415;DHT22;38340;52.964;6.086;2023-06-10T15:30:05;28.20;1.00
52415;DHT22;38340;52.964;6.086;2023-06-10T15:32:31;28.20;1.00
52415;DHT22;38340;52.964;6.086;2023-06-10T15:34:56;28.20;1.00
52415;DHT22;38340;52.964;6.086;2023-06-10T15:37:22;28.20;1.00
52415;DHT22;38340;52.964;6.086;2023-06-10T15:39:48;28.40;1.00
52415;DHT22;38340;52.964;6.086;2023-06-10T15:42:13;28.50;1.00
52415;DHT22;38340;52.964;6.086;2023-06-10T15:44:39;28.70;1.00
52415;DHT22;38340;52.964;6.086;2023-06-10T15:47:05;28.70;1.00
52415;DHT22;38340;52.964;6.086;2023-06-10T15:49:31;28.80;1.00
52415;DHT22;38340;52.964;6.086;2023-06-10T15:51:56;28.80;1.00